createdAt,value
2023-02-13T17:26:15.016Z,102796.38
2023-02-13T17:31:20.285Z,102798.69
2023-02-13T17:36:25.749Z,102799.28
2023-02-13T17:41:33.840Z,102797.84
2023-02-13T17:46:39.094Z,102798.78
2023-02-13T17:51:45.939Z,102791.94
2023-02-13T17:56:53.865Z,102794.38
2023-02-13T18:01:59.684Z,102804.50
2023-02-13T18:07:05.028Z,102802.56
2023-02-13T18:12:15.870Z,102810.97
2023-02-13T18:17:21.702Z,102804.78
2023-02-13T18:22:27.120Z,102807.19
2023-02-13T18:27:34.980Z,102807.03
2023-02-13T18:32:40.232Z,102806.78
2023-02-13T18:37:45.489Z,102809.25
2023-02-13T18:42:53.342Z,102807.41
2023-02-13T18:47:58.542Z,102809.81
2023-02-13T18:53:04.096Z,102810.50
2023-02-13T18:58:11.884Z,102816.44
2023-02-13T19:03:17.499Z,102819.78
2023-02-13T19:08:22.725Z,102811.13
2023-02-13T19:13:30.643Z,102818.72
2023-02-13T19:18:38.364Z,102817.78
2023-02-13T19:23:43.769Z,102821.16
2023-02-13T19:28:51.789Z,102825.47
2023-02-13T19:33:56.957Z,102828.81
2023-02-13T19:39:03.859Z,102822.63
2023-02-13T19:44:11.861Z,102828.50
2023-02-13T19:49:16.947Z,102830.88
2023-02-13T19:54:22.351Z,102828.94
2023-02-13T19:59:32.668Z,102839.88
2023-02-13T20:04:39.329Z,102825.94
2023-02-13T20:09:44.968Z,102832.56
2023-02-13T20:14:52.706Z,102829.03
2023-02-13T20:19:58.302Z,102835.59
2023-02-13T20:25:03.417Z,102843.94
2023-02-13T20:30:13.295Z,102833.53
2023-02-13T20:35:18.827Z,102845.31
2023-02-13T20:40:24.207Z,102844.28
2023-02-13T20:45:32.327Z,102841.59
2023-02-13T20:50:37.721Z,102835.41
2023-02-13T20:55:42.928Z,102845.53
2023-02-13T21:00:50.658Z,102832.59
2023-02-13T21:05:55.836Z,102842.59
2023-02-13T21:11:04.444Z,102844.19
2023-02-13T21:16:14.260Z,102852.56
2023-02-13T21:21:19.907Z,102849.00
2023-02-13T21:26:25.302Z,102836.88
2023-02-13T21:31:34.750Z,102841.94
2023-02-13T21:36:40.173Z,102836.66
2023-02-13T21:41:45.786Z,102840.69
2023-02-13T21:46:53.629Z,102831.13
2023-02-13T21:51:58.692Z,102831.69
2023-02-13T21:57:03.919Z,102834.03
2023-02-13T22:02:13.103Z,102835.59
2023-02-13T22:07:18.367Z,102831.97
2023-02-13T22:12:23.480Z,102827.50
2023-02-13T22:17:34.739Z,102820.50
2023-02-13T22:22:39.835Z,102823.75
2023-02-13T22:27:49.563Z,102820.16
2023-02-13T22:32:59.102Z,102829.34
2023-02-13T22:38:04.465Z,102825.75
2023-02-13T22:43:09.708Z,102819.66
2023-02-13T22:48:17.361Z,102832.38
2023-02-13T22:53:22.569Z,102829.59
2023-02-13T22:58:27.834Z,102829.47
2023-02-13T23:03:37.701Z,102821.63
2023-02-13T23:08:42.957Z,102826.56
2023-02-13T23:13:48.490Z,102829.84
2023-02-13T23:18:57.129Z,102830.53
2023-02-13T23:24:02.252Z,102829.47
2023-02-13T23:29:07.353Z,102830.28
